sensor_id;sensor_type;location;lat;lon;timestamp;temperature;humidity
72919;SHT30;61063;55.700;26.994;2023-02-19T00:01:21;2.3;79.6
72919;SHT30;61063;55.700;26.994;2023-02-19T00:06:50;2.2;81.4
72919;SHT30;61063;55.700;26.994;2023-02-19T00:11:56;2;82.6
72919;SHT30;61063;55.700;26.994;2023-02-19T00:16:47;2;82.2
72919;SHT30;61063;55.700;26.994;2023-02-19T00:21:46;2;82.3
72919;SHT30;61063;55.700;26.994;2023-02-19T00:26:32;1.9;82.9
72919;SHT30;61063;55.700;26.994;2023-02-19T00:32:08;1.8;82.4
72919;SHT30;61063;55.700;26.994;2023-02-19T00:36:54;1.9;81.7
72919;SHT30;61063;55.700;26.994;2023-02-19T00:41:32;2;81.2
72919;SHT30;61063;55.700;26.994;2023-02-19T00:46:44;2;81.4
72919;SHT30;61063;55.700;26.994;2023-02-19T00:51:32;1.9;82.1
72919;SHT30;61063;55.700;26.994;2023-02-19T00:57:08;1.8;82.6
72919;SHT30;61063;55.700;26.994;2023-02-19T01:02:06;1.8;82.2
72919;SHT30;61063;55.700;26.994;2023-02-19T01:06:20;1.8;82.3
72919;SHT30;61063;55.700;26.994;2023-02-19T01:11:44;1.8;81.7
72919;SHT30;61063;55.700;26.994;2023-02-19T01:16:20;1.8;80.7
72919;SHT30;61063;55.700;26.994;2023-02-19T01:22:06;1.9;80.1
72919;SHT30;61063;55.700;26.994;2023-02-19T01:26:54;2;79.4
72919;SHT30;61063;55.700;26.994;2023-02-19T01:31:44;2;79.2
72919;SHT30;61063;55.700;26.994;2023-02-19T01:36:46;2;79.2
72919;SHT30;61063;55.700;26.994;2023-02-19T01:41:46;2;79.6
72919;SHT30;61063;55.700;26.994;2023-02-19T01:47:10;1.9;79.3
72919;SHT30;61063;55.700;26.994;2023-02-19T01:51:55;1.9;78.9
72919;SHT30;61063;55.700;26.994;2023-02-19T01:56:46;1.9;79.3
72919;SHT30;61063;55.700;26.994;2023-02-19T02:01:44;1.8;79.4
72919;SHT30;61063;55.700;26.994;2023-02-19T02:06:50;1.8;79
72919;SHT30;61063;55.700;26.994;2023-02-19T02:12:06;1.9;78.3
72919;SHT30;61063;55.700;26.994;2023-02-19T02:16:54;1.9;77.5
72919;SHT30;61063;55.700;26.994;2023-02-19T02:21:26;1.9;77.3
72919;SHT30;61063;55.700;26.994;2023-02-19T02:26:51;1.9;77
72919;SHT30;61063;55.700;26.994;2023-02-19T02:31:32;2;77
72919;SHT30;61063;55.700;26.994;2023-02-19T02:36:56;1.9;76.6
72919;SHT30;61063;55.700;26.994;2023-02-19T02:41:57;1.9;76.5
72919;SHT30;61063;55.700;26.994;2023-02-19T02:46:48;1.9;76.4
72919;SHT30;61063;55.700;26.994;2023-02-19T02:51:46;1.9;75.6
72919;SHT30;61063;55.700;26.994;2023-02-19T02:56:58;1.9;75.4
72919;SHT30;61063;55.700;26.994;2023-02-19T03:01:54;1.9;75.4
72919;SHT30;61063;55.700;26.994;2023-02-19T03:07:08;1.9;75.2
72919;SHT30;61063;55.700;26.994;2023-02-19T03:12:08;1.9;74.8
72919;SHT30;61063;55.700;26.994;2023-02-19T03:16:46;1.9;74.4
72919;SHT30;61063;55.700;26.994;2023-02-19T03:21:32;1.9;74.3
72919;SHT30;61063;55.700;26.994;2023-02-19T03:26:54;1.8;73.5
72919;SHT30;61063;55.700;26.994;2023-02-19T03:32:07;1.8;73.3
72919;SHT30;61063;55.700;26.994;2023-02-19T03:36:55;1.8;74.1
72919;SHT30;61063;55.700;26.994;2023-02-19T03:41:32;1.8;74.9
72919;SHT30;61063;55.700;26.994;2023-02-19T03:46:32;1.8;75.3
72919;SHT30;61063;55.700;26.994;2023-02-19T03:51:55;1.7;74.7
72919;SHT30;61063;55.700;26.994;2023-02-19T03:57:08;1.7;74.5
72919;SHT30;61063;55.700;26.994;2023-02-19T04:01:38;1.7;74.6
72919;SHT30;61063;55.700;26.994;2023-02-19T04:06:28;1.6;74.8
72919;SHT30;61063;55.700;26.994;2023-02-19T04:12:10;1.6;74.7
72919;SHT30;61063;55.700;26.994;2023-02-19T04:16:56;1.5;74.5
72919;SHT30;61063;55.700;26.994;2023-02-19T04:22:10;1.5;74.2
72919;SHT30;61063;55.700;26.994;2023-02-19T04:26:40;1.5;74.6
72919;SHT30;61063;55.700;26.994;2023-02-19T04:31:32;1.5;74.6
72919;SHT30;61063;55.700;26.994;2023-02-19T04:36:32;1.5;74.6
72919;SHT30;61063;55.700;26.994;2023-02-19T04:41:54;1.4;74.7
72919;SHT30;61063;55.700;26.994;2023-02-19T04:47:08;1.4;74.6
72919;SHT30;61063;55.700;26.994;2023-02-19T04:51:56;1.5;74.7
72919;SHT30;61063;55.700;26.994;2023-02-19T04:56:32;1.5;74.3
72919;SHT30;61063;55.700;26.994;2023-02-19T05:01:20;1.4;74
72919;SHT30;61063;55.700;26.994;2023-02-19T05:06:54;1.4;73.4
72919;SHT30;61063;55.700;26.994;2023-02-19T05:12:08;1.4;72.3
72919;SHT30;61063;55.700;26.994;2023-02-19T05:16:52;1.4;72
72919;SHT30;61063;55.700;26.994;2023-02-19T05:21:46;1.4;71.7
72919;SHT30;61063;55.700;26.994;2023-02-19T05:26:46;1.4;71.8
72919;SHT30;61063;55.700;26.994;2023-02-19T05:31:54;1.4;71.8
72919;SHT30;61063;55.700;26.994;2023-02-19T05:37:08;1.4;71.5
72919;SHT30;61063;55.700;26.994;2023-02-19T05:42:11;1.4;71.5
72919;SHT30;61063;55.700;26.994;2023-02-19T05:46:44;1.4;71.5
72919;SHT30;61063;55.700;26.994;2023-02-19T05:51:21;1.4;71.5
72919;SHT30;61063;55.700;26.994;2023-02-19T05:56:40;1.4;71.3
72919;SHT30;61063;55.700;26.994;2023-02-19T06:02:06;1.4;71.6
72919;SHT30;61063;55.700;26.994;2023-02-19T06:06:54;1.5;71.6
72919;SHT30;61063;55.700;26.994;2023-02-19T06:11:46;1.5;71.1
72919;SHT30;61063;55.700;26.994;2023-02-19T06:16:34;1.5;70.2
72919;SHT30;61063;55.700;26.994;2023-02-19T06:21:52;1.5;69.5
72919;SHT30;61063;55.700;26.994;2023-02-19T06:27:10;1.5;68.7
72919;SHT30;61063;55.700;26.994;2023-02-19T06:31:40;1.5;68.7
72919;SHT30;61063;55.700;26.994;2023-02-19T06:36:47;1.6;68.6
72919;SHT30;61063;55.700;26.994;2023-02-19T06:41:58;1.6;68.6
72919;SHT30;61063;55.700;26.994;2023-02-19T06:46:38;1.6;68.8
72919;SHT30;61063;55.700;26.994;2023-02-19T06:51:56;1.6;68.9
72919;SHT30;61063;55.700;26.994;2023-02-19T06:56:48;1.6;69.1
72919;SHT30;61063;55.700;26.994;2023-02-19T07:01:20;1.8;68.8
72919;SHT30;61063;55.700;26.994;2023-02-19T07:06:34;1.9;68
72919;SHT30;61063;55.700;26.994;2023-02-19T07:11:33;1.9;67.7
72919;SHT30;61063;55.700;26.994;2023-02-19T07:17:08;2.1;66.7
72919;SHT30;61063;55.700;26.994;2023-02-19T07:21:56;2.2;66.7
72919;SHT30;61063;55.700;26.994;2023-02-19T07:26:44;2.1;66.6
72919;SHT30;61063;55.700;26.994;2023-02-19T07:31:34;2.2;66.4
72919;SHT30;61063;55.700;26.994;2023-02-19T07:36:20;2.3;66.1
72919;SHT30;61063;55.700;26.994;2023-02-19T07:42:09;2.3;65.5
72919;SHT30;61063;55.700;26.994;2023-02-19T07:46:52;2.3;65.5
72919;SHT30;61063;55.700;26.994;2023-02-19T07:51:20;2.2;65.5
72919;SHT30;61063;55.700;26.994;2023-02-19T07:56:34;2.3;65
72919;SHT30;61063;55.700;26.994;2023-02-19T08:01:44;2.7;64.3
72919;SHT30;61063;55.700;26.994;2023-02-19T08:07:08;2.7;64.1
72919;SHT30;61063;55.700;26.994;2023-02-19T08:11:52;2.6;64.1
72919;SHT30;61063;55.700;26.994;2023-02-19T08:16:20;2.7;63.2
72919;SHT30;61063;55.700;26.994;2023-02-19T08:21:32;2.6;63.5
72919;SHT30;61063;55.700;26.994;2023-02-19T08:26:34;2.8;63.9
72919;SHT30;61063;55.700;26.994;2023-02-19T08:32:06;2.9;63.6
72919;SHT30;61063;55.700;26.994;2023-02-19T08:36:26;3;63.7
72919;SHT30;61063;55.700;26.994;2023-02-19T08:41:20;2.9;63.4
72919;SHT30;61063;55.700;26.994;2023-02-19T08:46:32;2.9;63
72919;SHT30;61063;55.700;26.994;2023-02-19T08:51:52;3;62.4
72919;SHT30;61063;55.700;26.994;2023-02-19T08:57:08;3.2;62.1
72919;SHT30;61063;55.700;26.994;2023-02-19T09:01:52;3.2;61.8
72919;SHT30;61063;55.700;26.994;2023-02-19T09:06:20;3.1;61.4
72919;SHT30;61063;55.700;26.994;2023-02-19T09:11:34;3;61.5
72919;SHT30;61063;55.700;26.994;2023-02-19T09:16:46;3.3;60.9
72919;SHT30;61063;55.700;26.994;2023-02-19T09:22:08;3.2;60.9
72919;SHT30;61063;55.700;26.994;2023-02-19T09:26:52;3.4;60.6
72919;SHT30;61063;55.700;26.994;2023-02-19T09:31:32;3.7;60.3
72919;SHT30;61063;55.700;26.994;2023-02-19T09:36:20;3.5;60
72919;SHT30;61063;55.700;26.994;2023-02-19T09:41:45;3.5;60.1
72919;SHT30;61063;55.700;26.994;2023-02-19T09:47:12;3.4;60.5
72919;SHT30;61063;55.700;26.994;2023-02-19T09:51:57;3.4;60.9
72919;SHT30;61063;55.700;26.994;2023-02-19T09:56:20;3.3;60.5
72919;SHT30;61063;55.700;26.994;2023-02-19T10:01:35;3.1;59.3
72919;SHT30;61063;55.700;26.994;2023-02-19T10:06:54;3.3;59.2
72919;SHT30;61063;55.700;26.994;2023-02-19T10:12:12;3.5;58.2
72919;SHT30;61063;55.700;26.994;2023-02-19T10:16:56;3.7;56.7
72919;SHT30;61063;55.700;26.994;2023-02-19T10:21:21;3.5;56.6
72919;SHT30;61063;55.700;26.994;2023-02-19T10:27:11;3.1;57.5
72919;SHT30;61063;55.700;26.994;2023-02-19T10:31:46;3.3;57.9
72919;SHT30;61063;55.700;26.994;2023-02-19T10:37:11;3.2;57.9
72919;SHT30;61063;55.700;26.994;2023-02-19T10:41:40;3.1;57.9
72919;SHT30;61063;55.700;26.994;2023-02-19T10:46:47;3.5;57.1
72919;SHT30;61063;55.700;26.994;2023-02-19T10:52:00;3.8;56.3
72919;SHT30;61063;55.700;26.994;2023-02-19T10:56:46;3.5;57
72919;SHT30;61063;55.700;26.994;2023-02-19T11:02:14;3.3;57.9
72919;SHT30;61063;55.700;26.994;2023-02-19T11:06:56;3;58.9
72919;SHT30;61063;55.700;26.994;2023-02-19T11:11:48;2.9;59.4
72919;SHT30;61063;55.700;26.994;2023-02-19T11:16:43;2.8;59.8
72919;SHT30;61063;55.700;26.994;2023-02-19T11:21:22;2.9;59.8
72919;SHT30;61063;55.700;26.994;2023-02-19T11:27:15;3;59.8
72919;SHT30;61063;55.700;26.994;2023-02-19T11:31:54;3.1;59.2
72919;SHT30;61063;55.700;26.994;2023-02-19T11:36:44;3.1;58.2
72919;SHT30;61063;55.700;26.994;2023-02-19T11:41:52;2.8;58.6
72919;SHT30;61063;55.700;26.994;2023-02-19T11:46:56;2.5;59.8
72919;SHT30;61063;55.700;26.994;2023-02-19T11:52:12;2.5;61.3
72919;SHT30;61063;55.700;26.994;2023-02-19T11:56:55;2.5;61.1
72919;SHT30;61063;55.700;26.994;2023-02-19T12:01:43;2.6;60.3
72919;SHT30;61063;55.700;26.994;2023-02-19T12:06:22;2.6;59.6
72919;SHT30;61063;55.700;26.994;2023-02-19T12:11:35;2.6;59.1
72919;SHT30;61063;55.700;26.994;2023-02-19T12:17:09;2.7;58.7
72919;SHT30;61063;55.700;26.994;2023-02-19T12:21:59;2.7;58.5
72919;SHT30;61063;55.700;26.994;2023-02-19T12:26:46;2.7;58.7
72919;SHT30;61063;55.700;26.994;2023-02-19T12:32:04;2.8;58.8
72919;SHT30;61063;55.700;26.994;2023-02-19T12:36:57;2.9;59
72919;SHT30;61063;55.700;26.994;2023-02-19T12:42:10;3.1;58.7
72919;SHT30;61063;55.700;26.994;2023-02-19T12:46:57;3;58.2
72919;SHT30;61063;55.700;26.994;2023-02-19T12:51:35;3;57.9
72919;SHT30;61063;55.700;26.994;2023-02-19T12:56:33;3;57.9
72919;SHT30;61063;55.700;26.994;2023-02-19T13:01:47;2.9;57.9
72919;SHT30;61063;55.700;26.994;2023-02-19T13:07:08;3;58.1
72919;SHT30;61063;55.700;26.994;2023-02-19T13:12:10;2.9;58.4
72919;SHT30;61063;55.700;26.994;2023-02-19T13:16:43;2.7;59
72919;SHT30;61063;55.700;26.994;2023-02-19T13:21:34;2.6;59.8
72919;SHT30;61063;55.700;26.994;2023-02-19T13:26:37;2.5;60.7
72919;SHT30;61063;55.700;26.994;2023-02-19T13:32:14;2.3;62.2
72919;SHT30;61063;55.700;26.994;2023-02-19T13:36:34;2.1;63.8
72919;SHT30;61063;55.700;26.994;2023-02-19T13:41:34;2;64.7
72919;SHT30;61063;55.700;26.994;2023-02-19T13:46:34;1.9;65.2
72919;SHT30;61063;55.700;26.994;2023-02-19T13:51:46;1.8;65.9
72919;SHT30;61063;55.700;26.994;2023-02-19T13:57:25;1.8;66.7
72919;SHT30;61063;55.700;26.994;2023-02-19T14:02:09;1.8;67.2
72919;SHT30;61063;55.700;26.994;2023-02-19T14:06:40;1.7;67.8
72919;SHT30;61063;55.700;26.994;2023-02-19T14:12:15;1.6;68.8
72919;SHT30;61063;55.700;26.994;2023-02-19T14:16:47;1.5;70.2
72919;SHT30;61063;55.700;26.994;2023-02-19T14:23:15;1.3;72.7
72919;SHT30;61063;55.700;26.994;2023-02-19T14:26:56;1.1;74.2
72919;SHT30;61063;55.700;26.994;2023-02-19T14:31:35;1;75.5
72919;SHT30;61063;55.700;26.994;2023-02-19T14:36:37;0.9;77.1
72919;SHT30;61063;55.700;26.994;2023-02-19T14:41:47;0.8;78.4
72919;SHT30;61063;55.700;26.994;2023-02-19T14:47:12;0.7;79.5
72919;SHT30;61063;55.700;26.994;2023-02-19T14:51:40;0.6;80.8
72919;SHT30;61063;55.700;26.994;2023-02-19T14:56:46;0.5;81.8
72919;SHT30;61063;55.700;26.994;2023-02-19T15:01:56;0.4;82.2
72919;SHT30;61063;55.700;26.994;2023-02-19T15:06:20;0.4;82.4
72919;SHT30;61063;55.700;26.994;2023-02-19T15:12:13;0.4;82.7
72919;SHT30;61063;55.700;26.994;2023-02-19T15:16:56;0.4;82.7
72919;SHT30;61063;55.700;26.994;2023-02-19T15:21:36;0.3;82.8
72919;SHT30;61063;55.700;26.994;2023-02-19T15:26:34;0.3;82.8
72919;SHT30;61063;55.700;26.994;2023-02-19T15:31:46;0.4;82.4
72919;SHT30;61063;55.700;26.994;2023-02-19T15:37:10;0.4;82.1
72919;SHT30;61063;55.700;26.994;2023-02-19T15:41:42;0.4;81.9
72919;SHT30;61063;55.700;26.994;2023-02-19T15:47:01;0.5;81.9
72919;SHT30;61063;55.700;26.994;2023-02-19T15:51:35;0.5;81.8
72919;SHT30;61063;55.700;26.994;2023-02-19T15:57:12;0.5;81.7
72919;SHT30;61063;55.700;26.994;2023-02-19T16:01:58;0.5;81.5
72919;SHT30;61063;55.700;26.994;2023-02-19T16:07:19;0.5;81.5
72919;SHT30;61063;55.700;26.994;2023-02-19T16:12:00;0.5;81.4
72919;SHT30;61063;55.700;26.994;2023-02-19T16:17:10;0.5;81.3
72919;SHT30;61063;55.700;26.994;2023-02-19T16:22:10;0.5;81.1
72919;SHT30;61063;55.700;26.994;2023-02-19T16:26:48;0.6;80.8
72919;SHT30;61063;55.700;26.994;2023-02-19T16:31:26;0.6;80.5
72919;SHT30;61063;55.700;26.994;2023-02-19T16:37:01;0.6;80.3
72919;SHT30;61063;55.700;26.994;2023-02-19T16:42:12;0.7;79.6
72919;SHT30;61063;55.700;26.994;2023-02-19T16:47:13;0.8;78.8
72919;SHT30;61063;55.700;26.994;2023-02-19T16:51:22;0.9;77.9
72919;SHT30;61063;55.700;26.994;2023-02-19T16:56:40;1;77.3
72919;SHT30;61063;55.700;26.994;2023-02-19T17:01:54;1;76.8
72919;SHT30;61063;55.700;26.994;2023-02-19T17:06:54;1.1;76.4
72919;SHT30;61063;55.700;26.994;2023-02-19T17:12:11;1.1;75.7
72919;SHT30;61063;55.700;26.994;2023-02-19T17:17:00;1.2;75.2
72919;SHT30;61063;55.700;26.994;2023-02-19T17:21:40;1.2;75
72919;SHT30;61063;55.700;26.994;2023-02-19T17:26:44;1.2;75
72919;SHT30;61063;55.700;26.994;2023-02-19T17:31:48;1.2;75.2
72919;SHT30;61063;55.700;26.994;2023-02-19T17:37:10;1.2;75.3
72919;SHT30;61063;55.700;26.994;2023-02-19T17:41:58;1.2;75.3
72919;SHT30;61063;55.700;26.994;2023-02-19T17:46:32;1.2;75.6
72919;SHT30;61063;55.700;26.994;2023-02-19T17:52:00;1.2;75.9
72919;SHT30;61063;55.700;26.994;2023-02-19T17:56:34;1.1;76.4
72919;SHT30;61063;55.700;26.994;2023-02-19T18:02:06;1.1;76.5
72919;SHT30;61063;55.700;26.994;2023-02-19T18:07:00;1.1;76.9
72919;SHT30;61063;55.700;26.994;2023-02-19T18:11:26;1.1;76.9
72919;SHT30;61063;55.700;26.994;2023-02-19T18:17:00;1.1;76.8
72919;SHT30;61063;55.700;26.994;2023-02-19T18:21:32;1.1;76.5
72919;SHT30;61063;55.700;26.994;2023-02-19T18:27:10;1.1;76.3
72919;SHT30;61063;55.700;26.994;2023-02-19T18:32:00;1.1;76.1
72919;SHT30;61063;55.700;26.994;2023-02-19T18:36:28;1.1;76
72919;SHT30;61063;55.700;26.994;2023-02-19T18:42:00;1;76.2
72919;SHT30;61063;55.700;26.994;2023-02-19T18:46:20;1.1;76.3
72919;SHT30;61063;55.700;26.994;2023-02-19T18:52:10;1;76.6
72919;SHT30;61063;55.700;26.994;2023-02-19T18:57:00;0.9;77
72919;SHT30;61063;55.700;26.994;2023-02-19T19:01:38;0.9;77.1
72919;SHT30;61063;55.700;26.994;2023-02-19T19:07:00;0.8;77
72919;SHT30;61063;55.700;26.994;2023-02-19T19:11:34;0.8;76.8
72919;SHT30;61063;55.700;26.994;2023-02-19T19:17:08;0.8;76.8
72919;SHT30;61063;55.700;26.994;2023-02-19T19:21:34;0.8;76.7
72919;SHT30;61063;55.700;26.994;2023-02-19T19:26:28;0.8;76.5
72919;SHT30;61063;55.700;26.994;2023-02-19T19:31:32;0.8;76.4
72919;SHT30;61063;55.700;26.994;2023-02-19T19:36:34;0.8;76.4
72919;SHT30;61063;55.700;26.994;2023-02-19T19:42:10;0.8;76.5
72919;SHT30;61063;55.700;26.994;2023-02-19T19:47:00;0.7;76.5
72919;SHT30;61063;55.700;26.994;2023-02-19T19:51:29;0.7;76.2
72919;SHT30;61063;55.700;26.994;2023-02-19T19:57:10;0.7;75.9
72919;SHT30;61063;55.700;26.994;2023-02-19T20:01:20;0.8;75.8
72919;SHT30;61063;55.700;26.994;2023-02-19T20:06:44;0.8;75.5
72919;SHT30;61063;55.700;26.994;2023-02-19T20:11:49;0.8;75.4
72919;SHT30;61063;55.700;26.994;2023-02-19T20:16:42;0.8;75.2
72919;SHT30;61063;55.700;26.994;2023-02-19T20:22:10;0.8;74.9
72919;SHT30;61063;55.700;26.994;2023-02-19T20:26:34;0.8;74.5
72919;SHT30;61063;55.700;26.994;2023-02-19T20:31:50;0.9;74.1
72919;SHT30;61063;55.700;26.994;2023-02-19T20:36:32;0.9;73.8
72919;SHT30;61063;55.700;26.994;2023-02-19T20:41:42;0.9;73.4
72919;SHT30;61063;55.700;26.994;2023-02-19T20:47:02;1;73.2
72919;SHT30;61063;55.700;26.994;2023-02-19T20:51:32;1;73
72919;SHT30;61063;55.700;26.994;2023-02-19T20:56:53;1;73
72919;SHT30;61063;55.700;26.994;2023-02-19T21:01:24;1;73
72919;SHT30;61063;55.700;26.994;2023-02-19T21:06:40;1;73.1
72919;SHT30;61063;55.700;26.994;2023-02-19T21:12:08;1;73
72919;SHT30;61063;55.700;26.994;2023-02-19T21:16:20;1;73.2
72919;SHT30;61063;55.700;26.994;2023-02-19T21:21:50;1;73.3
72919;SHT30;61063;55.700;26.994;2023-02-19T21:26:48;1;73.5
72919;SHT30;61063;55.700;26.994;2023-02-19T21:31:40;0.9;74
72919;SHT30;61063;55.700;26.994;2023-02-19T21:37:08;0.8;75
72919;SHT30;61063;55.700;26.994;2023-02-19T21:41:34;0.7;75.1
72919;SHT30;61063;55.700;26.994;2023-02-19T21:46:50;0.8;74.7
72919;SHT30;61063;55.700;26.994;2023-02-19T21:51:48;0.8;74.3
72919;SHT30;61063;55.700;26.994;2023-02-19T21:56:42;0.8;74.2
72919;SHT30;61063;55.700;26.994;2023-02-19T22:02:04;0.8;74.1
72919;SHT30;61063;55.700;26.994;2023-02-19T22:06:32;0.8;73.7
72919;SHT30;61063;55.700;26.994;2023-02-19T22:11:40;0.9;73
72919;SHT30;61063;55.700;26.994;2023-02-19T22:16:20;0.9;73
72919;SHT30;61063;55.700;26.994;2023-02-19T22:21:42;0.9;72.6
72919;SHT30;61063;55.700;26.994;2023-02-19T22:27:08;0.9;72.5
72919;SHT30;61063;55.700;26.994;2023-02-19T22:31:32;1;72.5
72919;SHT30;61063;55.700;26.994;2023-02-19T22:36:52;1;72.7
72919;SHT30;61063;55.700;26.994;2023-02-19T22:41:34;1;72.6
72919;SHT30;61063;55.700;26.994;2023-02-19T22:46:20;1;72.5
72919;SHT30;61063;55.700;26.994;2023-02-19T22:52:08;1;72.5
72919;SHT30;61063;55.700;26.994;2023-02-19T22:56:34;1;72.9
72919;SHT30;61063;55.700;26.994;2023-02-19T23:01:48;1;73
72919;SHT30;61063;55.700;26.994;2023-02-19T23:06:34;1;73.3
72919;SHT30;61063;55.700;26.994;2023-02-19T23:11:27;1;73.2
72919;SHT30;61063;55.700;26.994;2023-02-19T23:17:08;1;73.3
72919;SHT30;61063;55.700;26.994;2023-02-19T23:21:21;1;73.7
72919;SHT30;61063;55.700;26.994;2023-02-19T23:26:50;1;73.6
72919;SHT30;61063;55.700;26.994;2023-02-19T23:31:20;1;73.4
72919;SHT30;61063;55.700;26.994;2023-02-19T23:36:40;1;73.3
72919;SHT30;61063;55.700;26.994;2023-02-19T23:42:06;1;73.2
72919;SHT30;61063;55.700;26.994;2023-02-19T23:46:20;1;73.3
72919;SHT30;61063;55.700;26.994;2023-02-19T23:51:36;1;73.6
72919;SHT30;61063;55.700;26.994;2023-02-19T23:56:46;1;74.3
